createdAt,value
2023-03-11T00:00:17.021Z,75.58
2023-03-11T00:02:47.596Z,75.93
2023-03-11T00:05:28.678Z,75.21
2023-03-11T00:07:55.929Z,75.58
2023-03-11T00:10:37.311Z,75.96
2023-03-11T00:13:05.920Z,75.59
2023-03-11T00:15:33.595Z,76.02
2023-03-11T00:18:00.495Z,76.02
2023-03-11T00:20:33.597Z,75.93
2023-03-11T00:23:00.929Z,76.22
2023-03-11T00:25:30.257Z,75.48
2023-03-11T00:27:57.458Z,75.91
2023-03-11T00:30:24.969Z,75.69
2023-03-11T00:32:54.208Z,76.01
2023-03-11T00:35:26.086Z,76.09
2023-03-11T00:37:58.501Z,75.79
2023-03-11T00:40:27.591Z,76.38
2023-03-11T00:42:54.215Z,75.95
2023-03-11T00:45:20.772Z,75.73
2023-03-11T00:47:47.409Z,75.55
2023-03-11T00:50:21.964Z,75.10
2023-03-11T00:52:49.896Z,75.43
2023-03-11T00:55:28.297Z,75.00
2023-03-11T00:58:00.680Z,74.81
2023-03-11T01:00:28.355Z,74.87
2023-03-11T01:02:55.891Z,74.87
2023-03-11T01:05:25.708Z,74.76
2023-03-11T01:07:52.140Z,75.20
2023-03-11T01:10:21.542Z,75.31
2023-03-11T01:12:48.494Z,75.58
2023-03-11T01:15:20.164Z,74.95
2023-03-11T01:17:46.669Z,75.31
2023-03-11T01:20:13.931Z,74.97
2023-03-11T01:22:40.333Z,74.97
2023-03-11T01:25:07.231Z,75.71
2023-03-11T01:27:33.644Z,75.58
2023-03-11T01:30:02.114Z,76.06
2023-03-11T01:32:28.601Z,76.27
2023-03-11T01:34:54.947Z,76.22
2023-03-11T01:37:21.341Z,76.63
2023-03-11T01:39:47.688Z,76.58
2023-03-11T01:42:14.097Z,76.28
2023-03-11T01:44:40.430Z,76.63
2023-03-11T01:47:09.739Z,75.67
2023-03-11T01:49:41.774Z,76.04
2023-03-11T01:52:08.923Z,76.34
2023-03-11T01:54:41.410Z,76.12
2023-03-11T01:57:12.331Z,75.77
2023-03-11T01:59:44.611Z,76.01
2023-03-11T02:02:20.086Z,75.57
2023-03-11T02:04:47.149Z,75.89
2023-03-11T02:07:14.541Z,76.19
2023-03-11T02:09:41.071Z,75.97
2023-03-11T02:12:11.092Z,75.67
2023-03-11T02:14:41.993Z,75.07
2023-03-11T02:17:08.802Z,75.64
2023-03-11T02:19:35.161Z,75.67
2023-03-11T02:22:02.349Z,76.12
2023-03-11T02:24:45.252Z,74.61
2023-03-11T02:27:16.398Z,75.23
2023-03-11T02:29:44.569Z,75.54
2023-03-11T02:32:11.362Z,75.84
2023-03-11T02:34:39.554Z,75.87
2023-03-11T02:37:08.374Z,75.85
2023-03-11T02:39:37.334Z,75.55
2023-03-11T02:42:18.676Z,74.27
2023-03-11T02:44:48.226Z,74.78
2023-03-11T02:47:16.526Z,75.07
2023-03-11T02:49:43.043Z,75.26
2023-03-11T02:52:09.389Z,75.09
2023-03-11T02:54:35.737Z,74.49
2023-03-11T02:57:02.080Z,75.05
2023-03-11T02:59:28.456Z,74.82
2023-03-11T03:01:54.904Z,74.71
2023-03-11T03:04:21.298Z,74.61
2023-03-11T03:06:47.766Z,74.73
2023-03-11T03:09:14.109Z,74.62
2023-03-11T03:11:40.441Z,74.86
2023-03-11T03:14:06.751Z,74.77
2023-03-11T03:16:33.324Z,75.21
2023-03-11T03:18:59.757Z,74.82
2023-03-11T03:21:26.140Z,75.32
2023-03-11T03:23:52.496Z,75.80
2023-03-11T03:26:18.832Z,75.54
2023-03-11T03:28:45.183Z,75.38
2023-03-11T03:31:11.997Z,75.10
2023-03-11T03:33:38.468Z,74.80
2023-03-11T03:36:10.394Z,73.89
2023-03-11T03:38:36.891Z,74.86
2023-03-11T03:41:03.425Z,74.84
2023-03-11T03:43:29.890Z,74.46
2023-03-11T03:45:58.525Z,74.62
2023-03-11T03:48:25.023Z,74.59
2023-03-11T03:50:51.835Z,75.21
2023-03-11T03:53:18.674Z,75.32
2023-03-11T03:55:45.129Z,75.51
2023-03-11T03:58:11.572Z,75.31
2023-03-11T04:00:39.270Z,75.65
2023-03-11T04:03:06.424Z,75.42
2023-03-11T04:05:33.935Z,75.22
2023-03-11T04:08:00.559Z,75.68
2023-03-11T04:10:26.956Z,75.26
2023-03-11T04:12:53.353Z,75.83
2023-03-11T04:15:19.705Z,75.52
2023-03-11T04:17:46.047Z,75.94
2023-03-11T04:20:12.536Z,75.43
2023-03-11T04:22:38.886Z,75.13
2023-03-11T04:25:05.633Z,75.06
2023-03-11T04:27:31.963Z,74.80
2023-03-11T04:29:58.341Z,74.46
2023-03-11T04:32:24.783Z,74.35
2023-03-11T04:34:51.229Z,73.83
2023-03-11T04:37:17.601Z,74.43
2023-03-11T04:39:43.996Z,74.47
2023-03-11T04:42:10.429Z,74.47
2023-03-11T04:44:36.829Z,73.79
2023-03-11T04:47:03.173Z,73.71
2023-03-11T04:49:29.582Z,73.40
2023-03-11T04:51:56.627Z,73.28
2023-03-11T04:54:22.956Z,73.58
2023-03-11T04:56:49.284Z,73.26
2023-03-11T04:59:15.672Z,72.98
2023-03-11T05:01:42.047Z,72.78
2023-03-11T05:04:08.583Z,72.86
2023-03-11T05:06:35.013Z,72.96
2023-03-11T05:09:01.383Z,72.91
2023-03-11T05:11:27.705Z,72.79
2023-03-11T05:13:54.081Z,72.34
2023-03-11T05:16:20.550Z,72.49
2023-03-11T05:18:46.983Z,72.81
2023-03-11T05:21:13.437Z,72.56
2023-03-11T05:23:39.863Z,72.67
2023-03-11T05:26:06.268Z,72.68
2023-03-11T05:28:32.651Z,72.46
2023-03-11T05:30:59.122Z,72.57
2023-03-11T05:33:25.616Z,72.75
2023-03-11T05:35:52.224Z,72.61
2023-03-11T05:38:18.679Z,72.36
2023-03-11T05:40:45.135Z,72.78
2023-03-11T05:43:11.618Z,72.63
2023-03-11T05:45:38.211Z,72.86
2023-03-11T05:48:04.682Z,72.78
2023-03-11T05:50:31.180Z,72.11
2023-03-11T05:52:57.572Z,72.51
2023-03-11T05:55:23.940Z,72.55
2023-03-11T05:57:51.753Z,72.61
2023-03-11T06:00:20.472Z,72.90
2023-03-11T06:02:46.872Z,72.56
2023-03-11T06:05:14.065Z,72.96
2023-03-11T06:07:40.585Z,73.03
2023-03-11T06:10:07.652Z,73.23
2023-03-11T06:12:35.170Z,73.36
2023-03-11T06:15:01.752Z,73.16
2023-03-11T06:17:30.326Z,73.04
2023-03-11T06:19:56.912Z,73.35
2023-03-11T06:22:23.218Z,73.13
2023-03-11T06:24:49.679Z,72.83
2023-03-11T06:27:16.071Z,73.24
2023-03-11T06:29:42.457Z,72.66
2023-03-11T06:32:08.835Z,73.19
2023-03-11T06:34:35.333Z,73.15
2023-03-11T06:37:01.797Z,72.93
2023-03-11T06:39:28.139Z,73.53
2023-03-11T06:41:54.591Z,73.41
2023-03-11T06:44:20.935Z,72.92
2023-03-11T06:46:47.278Z,73.13
2023-03-11T06:49:13.663Z,73.16
2023-03-11T06:51:40.082Z,73.36
2023-03-11T06:54:07.099Z,73.59
2023-03-11T06:56:33.898Z,73.77
2023-03-11T06:59:00.261Z,73.84
2023-03-11T07:01:28.038Z,73.98
2023-03-11T07:09:04.614Z,73.77
2023-03-11T07:11:30.991Z,74.00
2023-03-11T07:13:57.432Z,73.91
2023-03-11T07:16:26.629Z,73.38
2023-03-11T07:18:55.456Z,73.72
2023-03-11T07:21:22.935Z,73.72
2023-03-11T07:23:54.937Z,72.89
2023-03-11T07:26:23.012Z,74.20
2023-03-11T07:28:49.524Z,73.72
2023-03-11T07:31:18.800Z,74.11
2023-03-11T07:33:46.308Z,73.98
2023-03-11T07:36:18.525Z,74.04
2023-03-11T07:38:46.277Z,74.04
2023-03-11T07:41:14.204Z,74.12
2023-03-11T07:43:42.317Z,74.02
2023-03-11T07:46:12.687Z,73.73
2023-03-11T07:48:40.113Z,73.87
2023-03-11T07:51:12.527Z,74.19
2023-03-11T07:53:42.202Z,74.56
2023-03-11T07:56:10.891Z,73.55
2023-03-11T07:58:37.958Z,74.74
2023-03-11T08:01:06.965Z,74.18
2023-03-11T08:03:34.712Z,73.95
2023-03-11T08:06:01.511Z,74.23
2023-03-11T08:08:28.178Z,73.79
2023-03-11T08:10:54.572Z,74.20
2023-03-11T08:13:21.094Z,74.28
2023-03-11T08:15:47.621Z,73.99
2023-03-11T08:18:14.072Z,73.96
2023-03-11T08:20:40.595Z,73.80
2023-03-11T08:23:06.989Z,74.05
2023-03-11T08:25:33.499Z,74.16
2023-03-11T08:27:59.913Z,74.32
2023-03-11T08:30:26.414Z,73.84
2023-03-11T08:32:52.802Z,73.94
2023-03-11T08:35:22.293Z,73.71
2023-03-11T08:37:48.932Z,74.27
2023-03-11T08:40:17.612Z,74.37
2023-03-11T08:42:44.061Z,74.19
2023-03-11T08:45:12.860Z,73.63
2023-03-11T08:47:39.845Z,74.17
2023-03-11T08:50:09.377Z,74.42
2023-03-11T08:52:35.950Z,74.09
2023-03-11T08:55:04.758Z,74.52
2023-03-11T08:57:32.118Z,74.45
2023-03-11T09:00:01.241Z,73.97
2023-03-11T09:02:27.700Z,74.72
2023-03-11T09:04:57.364Z,73.78
2023-03-11T09:07:24.958Z,73.86
2023-03-11T09:09:51.373Z,74.42
2023-03-11T09:12:19.313Z,74.21
2023-03-11T09:14:45.854Z,74.21
2023-03-11T09:17:14.483Z,74.29
2023-03-11T09:19:40.910Z,74.84
2023-03-11T09:22:13.199Z,73.54
2023-03-11T09:24:39.618Z,74.93
2023-03-11T09:27:09.200Z,74.07
2023-03-11T09:29:35.770Z,74.63
2023-03-11T09:32:03.393Z,74.83
2023-03-11T09:34:29.750Z,75.08
2023-03-11T09:37:02.080Z,72.98
2023-03-11T09:39:28.460Z,74.75
2023-03-11T09:42:19.855Z,72.81
2023-03-11T09:44:55.507Z,74.74
2023-03-11T09:47:30.865Z,72.42
2023-03-11T09:50:23.700Z,72.67
2023-03-11T09:53:02.203Z,74.04
2023-03-11T09:55:33.766Z,75.25
2023-03-11T09:58:09.742Z,73.72
2023-03-11T10:00:36.711Z,75.48
2023-03-11T10:03:12.912Z,74.52
2023-03-11T10:05:42.196Z,75.75
2023-03-11T10:08:24.412Z,72.86
2023-03-11T10:11:05.821Z,73.67
2023-03-11T10:14:00.245Z,72.19
2023-03-11T10:16:41.063Z,72.71
2023-03-11T10:19:45.819Z,71.51
2023-03-11T10:22:32.181Z,72.98
2023-03-11T10:25:07.604Z,72.46
2023-03-11T10:28:13.192Z,71.24
2023-03-11T10:30:51.382Z,72.07
2023-03-11T10:33:37.168Z,71.88
2023-03-11T10:36:13.507Z,73.08
2023-03-11T10:38:46.570Z,74.14
2023-03-11T10:41:31.043Z,71.70
2023-03-11T10:44:05.921Z,72.27
2023-03-11T10:46:32.865Z,74.55
2023-03-11T10:48:59.306Z,74.52
2023-03-11T10:51:34.708Z,71.25
2023-03-11T10:54:03.405Z,73.73
2023-03-11T10:56:31.781Z,73.50
2023-03-11T10:58:59.482Z,73.29
2023-03-11T11:01:26.976Z,73.20
2023-03-11T11:03:56.599Z,72.25
2023-03-11T11:06:37.318Z,68.98
2023-03-11T11:09:16.716Z,68.38
2023-03-11T11:12:00.525Z,72.55
2023-03-11T11:14:45.739Z,69.01
2023-03-11T11:17:31.395Z,68.23
2023-03-11T11:19:59.077Z,72.63
2023-03-11T11:22:25.839Z,72.52
2023-03-11T11:24:55.575Z,71.00
2023-03-11T11:27:27.602Z,72.52
2023-03-11T11:30:14.903Z,71.06
2023-03-11T11:32:42.179Z,77.40
2023-03-11T11:35:14.981Z,75.94
2023-03-11T11:37:49.000Z,76.96
2023-03-11T11:40:21.695Z,80.76
2023-03-11T11:43:19.722Z,74.16
2023-03-11T11:45:53.391Z,77.99
2023-03-11T11:48:26.539Z,71.95
2023-03-11T11:50:59.064Z,65.38
2023-03-11T11:53:41.095Z,63.51
2023-03-11T11:56:07.551Z,66.07
2023-03-11T11:58:34.959Z,64.44
2023-03-11T12:01:08.457Z,60.33
2023-03-11T12:04:18.551Z,56.39
2023-03-11T12:07:17.301Z,55.08
2023-03-11T12:09:56.680Z,54.68
2023-03-11T12:12:55.299Z,54.76
2023-03-11T12:15:32.049Z,54.75
2023-03-11T12:18:08.546Z,53.24
2023-03-11T12:20:40.486Z,54.52
2023-03-11T12:23:17.055Z,53.77
2023-03-11T12:25:46.148Z,55.71
2023-03-11T12:28:31.874Z,49.92
2023-03-11T12:31:01.605Z,52.94
2023-03-11T12:34:03.050Z,50.46
2023-03-11T12:36:36.424Z,50.50
2023-03-11T12:39:19.429Z,49.32
2023-03-11T12:41:46.213Z,53.37
2023-03-11T12:44:29.921Z,47.66
2023-03-11T12:46:59.297Z,49.74
2023-03-11T12:49:30.520Z,46.71
2023-03-11T12:52:02.822Z,45.35
2023-03-11T12:54:36.250Z,49.93
2023-03-11T12:57:05.271Z,51.36
2023-03-11T12:59:49.955Z,48.98
2023-03-11T13:02:38.206Z,49.08
2023-03-11T13:08:13.706Z,48.15
2023-03-11T13:10:50.975Z,46.24
2023-03-11T13:13:32.940Z,45.32
2023-03-11T13:16:14.600Z,46.45
2023-03-11T13:18:46.578Z,47.19
2023-03-11T13:21:34.479Z,45.10
2023-03-11T13:24:19.305Z,43.90
2023-03-11T13:26:48.725Z,43.93
2023-03-11T13:29:46.969Z,43.44
2023-03-11T13:32:25.314Z,42.85
2023-03-11T13:35:13.724Z,45.39
2023-03-11T13:38:13.620Z,44.69
2023-03-11T13:40:42.730Z,46.24
2023-03-11T13:43:22.726Z,41.45
2023-03-11T13:46:22.277Z,38.03
2023-03-11T13:48:55.256Z,42.13
2023-03-11T13:51:44.892Z,44.89
2023-03-11T13:54:22.246Z,44.29
2023-03-11T13:56:54.023Z,44.19
2023-03-11T13:59:32.885Z,42.76
2023-03-11T14:02:03.928Z,45.11
2023-03-11T14:04:33.618Z,45.21
2023-03-11T14:07:00.596Z,46.29
2023-03-11T14:09:28.419Z,45.21
2023-03-11T14:12:03.391Z,46.06
2023-03-11T14:15:02.151Z,44.70
2023-03-11T14:17:28.669Z,46.36
2023-03-11T14:20:18.573Z,42.80
2023-03-11T14:22:51.170Z,41.63
2023-03-11T14:25:31.022Z,44.42
2023-03-11T14:28:01.196Z,44.68
2023-03-11T14:30:36.431Z,41.77
2023-03-11T14:33:21.665Z,40.67
2023-03-11T14:35:59.854Z,39.33
2023-03-11T14:38:29.301Z,39.89
2023-03-11T14:41:05.628Z,38.64
2023-03-11T14:43:37.481Z,40.69
2023-03-11T14:46:06.619Z,42.85
2023-03-11T14:48:43.788Z,37.96
2023-03-11T14:51:30.128Z,39.22
2023-03-11T14:54:17.610Z,37.31
2023-03-11T14:56:51.143Z,38.66
2023-03-11T14:59:26.985Z,37.21
2023-03-11T15:01:57.659Z,38.23
2023-03-11T15:04:38.069Z,37.67
2023-03-11T15:07:05.454Z,37.21
2023-03-11T15:09:32.781Z,36.60
2023-03-11T15:12:02.063Z,36.33
2023-03-11T15:14:31.820Z,37.16
2023-03-11T15:17:37.377Z,35.93
2023-03-11T15:20:28.026Z,36.29
2023-03-11T15:22:58.306Z,37.41
2023-03-11T15:25:24.919Z,37.73
2023-03-11T15:27:51.484Z,36.63
2023-03-11T15:30:24.056Z,34.93
2023-03-11T15:32:51.873Z,34.87
2023-03-11T15:35:21.680Z,32.98
2023-03-11T15:37:50.127Z,33.26
2023-03-11T15:40:23.420Z,30.26
2023-03-11T15:43:27.660Z,30.05
2023-03-11T15:45:56.331Z,32.89
2023-03-11T15:48:23.440Z,33.05
2023-03-11T15:50:55.273Z,32.22
2023-03-11T15:53:23.450Z,34.25
2023-03-11T15:55:51.416Z,35.15
2023-03-11T15:58:19.399Z,35.70
2023-03-11T16:00:51.966Z,35.04
2023-03-11T16:03:19.655Z,37.10
2023-03-11T16:05:46.814Z,37.64
2023-03-11T16:08:13.630Z,37.98
2023-03-11T16:10:41.133Z,38.29
2023-03-11T16:13:12.045Z,38.17
2023-03-11T16:15:38.714Z,39.44
2023-03-11T16:18:08.649Z,39.55
2023-03-11T16:20:41.292Z,38.81
2023-03-11T16:23:11.953Z,40.66
2023-03-11T16:25:40.503Z,40.96
2023-03-11T16:28:07.706Z,41.65
2023-03-11T16:30:35.325Z,41.84
2023-03-11T16:33:04.467Z,42.28
2023-03-11T16:35:32.000Z,42.50
2023-03-11T16:37:58.559Z,42.55
2023-03-11T16:40:28.165Z,42.06
2023-03-11T16:42:58.341Z,42.32
2023-03-11T16:45:24.965Z,42.91
2023-03-11T16:47:51.395Z,42.85
2023-03-11T16:50:17.942Z,43.01
2023-03-11T16:52:44.378Z,43.02
2023-03-11T16:55:10.824Z,43.15
2023-03-11T16:57:38.748Z,43.20
2023-03-11T17:00:07.061Z,43.22
2023-03-11T17:02:33.532Z,43.63
2023-03-11T17:05:00.103Z,44.11
2023-03-11T17:07:26.898Z,43.90
2023-03-11T17:09:53.340Z,43.92
2023-03-11T17:12:19.878Z,43.73
2023-03-11T17:14:46.697Z,43.70
2023-03-11T17:17:13.187Z,44.05
2023-03-11T17:19:39.727Z,44.34
2023-03-11T17:22:06.272Z,44.44
2023-03-11T17:24:32.857Z,44.72
2023-03-11T17:26:59.341Z,45.00
2023-03-11T17:29:25.829Z,44.98
2023-03-11T17:31:52.436Z,44.91
2023-03-11T17:34:18.951Z,45.05
2023-03-11T17:36:45.420Z,44.66
2023-03-11T17:39:11.896Z,44.71
2023-03-11T17:41:38.393Z,45.14
2023-03-11T17:44:05.408Z,45.32
2023-03-11T17:46:31.991Z,44.92
2023-03-11T17:48:58.495Z,45.13
2023-03-11T17:51:26.126Z,45.13
2023-03-11T17:53:55.048Z,45.36
2023-03-11T17:56:22.555Z,45.57
2023-03-11T17:58:50.291Z,45.89
2023-03-11T18:01:23.908Z,45.53
2023-03-11T18:03:50.641Z,46.06
2023-03-11T18:06:18.936Z,45.95
2023-03-11T18:08:45.765Z,46.05
2023-03-11T18:11:18.282Z,46.25
2023-03-11T18:13:45.255Z,46.54
2023-03-11T18:16:15.401Z,45.77
2023-03-11T18:18:43.025Z,46.42
2023-03-11T18:21:12.999Z,45.69
2023-03-11T18:23:40.240Z,46.30
2023-03-11T18:26:09.706Z,46.38
2023-03-11T18:28:36.115Z,46.65
2023-03-11T18:31:23.828Z,45.33
2023-03-11T18:33:56.742Z,45.98
2023-03-11T18:36:27.028Z,46.83
2023-03-11T18:38:54.817Z,46.84
2023-03-11T18:41:21.537Z,47.11
2023-03-11T18:43:52.657Z,46.56
2023-03-11T18:46:19.652Z,47.14
2023-03-11T18:48:46.441Z,47.37
2023-03-11T18:51:14.152Z,47.45
2023-03-11T18:53:42.737Z,47.36
2023-03-11T18:56:13.926Z,47.09
2023-03-11T18:58:40.554Z,47.66
2023-03-11T19:01:09.628Z,47.63
2023-03-11T19:03:36.368Z,47.71
2023-03-11T19:08:33.707Z,48.00
2023-03-11T19:11:00.209Z,48.05
2023-03-11T19:13:40.628Z,48.35
2023-03-11T19:16:09.407Z,48.43
2023-03-11T19:18:36.918Z,48.42
2023-03-11T19:21:05.882Z,48.28
2023-03-11T19:23:33.134Z,48.57
2023-03-11T19:26:03.242Z,48.71
2023-03-11T19:28:30.276Z,48.89
2023-03-11T19:30:58.909Z,48.57
2023-03-11T19:33:26.086Z,48.78
2023-03-11T19:35:54.667Z,48.79
2023-03-11T19:38:21.880Z,48.75
2023-03-11T19:40:53.449Z,48.22
2023-03-11T19:43:21.047Z,48.86
2023-03-11T19:45:49.753Z,48.75
2023-03-11T19:48:16.727Z,48.68
2023-03-11T19:50:43.439Z,48.76
2023-03-11T19:53:10.090Z,48.87
2023-03-11T19:55:36.717Z,48.64
2023-03-11T19:58:03.261Z,49.09
2023-03-11T20:00:30.570Z,48.90
2023-03-11T20:02:57.447Z,49.11
2023-03-11T20:05:23.976Z,49.17
2023-03-11T20:07:50.608Z,49.29
2023-03-11T20:10:17.656Z,49.14
2023-03-11T20:12:59.643Z,49.35
2023-03-11T20:15:28.745Z,49.41
2023-03-11T20:17:55.217Z,49.53
2023-03-11T20:20:21.881Z,49.48
2023-03-11T20:22:48.759Z,49.87
2023-03-11T20:25:18.371Z,49.85
2023-03-11T20:27:45.223Z,49.97
2023-03-11T20:30:12.617Z,49.67
2023-03-11T20:32:39.135Z,49.56
2023-03-11T20:35:06.429Z,49.52
2023-03-11T20:37:33.337Z,49.77
2023-03-11T20:39:59.868Z,49.59
2023-03-11T20:42:26.382Z,49.55
2023-03-11T20:44:53.738Z,49.82
2023-03-11T20:47:20.824Z,49.77
2023-03-11T20:49:47.518Z,49.86
2023-03-11T20:52:14.054Z,49.96
2023-03-11T20:54:40.754Z,49.98
2023-03-11T20:57:08.092Z,50.20
2023-03-11T20:59:34.591Z,50.45
2023-03-11T21:02:01.441Z,50.16
2023-03-11T21:04:28.004Z,50.17
2023-03-11T21:06:55.450Z,50.29
2023-03-11T21:09:22.123Z,50.20
2023-03-11T21:11:48.709Z,50.29
2023-03-11T21:14:17.242Z,50.31
2023-03-11T21:16:45.429Z,50.22
2023-03-11T21:19:13.618Z,50.22
2023-03-11T21:21:40.892Z,50.47
2023-03-11T21:24:08.166Z,50.69
2023-03-11T21:26:34.829Z,50.72
2023-03-11T21:29:01.877Z,50.66
2023-03-11T21:31:29.647Z,50.84
2023-03-11T21:33:58.788Z,50.86
2023-03-11T21:36:25.898Z,51.04
2023-03-11T21:38:52.560Z,51.08
2023-03-11T21:41:21.998Z,51.02
2023-03-11T21:43:48.812Z,51.03
2023-03-11T21:46:18.035Z,50.89
2023-03-11T21:48:46.107Z,51.18
2023-03-11T21:51:13.865Z,50.81
2023-03-11T21:53:40.630Z,51.22
2023-03-11T21:56:07.605Z,51.20
2023-03-11T21:58:34.915Z,51.36
2023-03-11T22:01:01.843Z,51.66
2023-03-11T22:03:28.829Z,51.96
2023-03-11T22:06:00.432Z,51.77
2023-03-11T22:08:27.114Z,51.86
2023-03-11T22:10:54.188Z,51.76
2023-03-11T22:13:21.219Z,52.17
2023-03-11T22:15:48.038Z,51.79
2023-03-11T22:18:14.695Z,51.88
2023-03-11T22:20:41.989Z,51.38
2023-03-11T22:23:09.148Z,51.50
2023-03-11T22:25:36.003Z,51.56
2023-03-11T22:28:02.707Z,51.28
2023-03-11T22:30:29.484Z,51.40
2023-03-11T22:32:56.025Z,51.45
2023-03-11T22:35:22.502Z,51.47
2023-03-11T22:37:49.059Z,51.47
2023-03-11T22:40:15.655Z,51.31
2023-03-11T22:42:42.194Z,51.17
2023-03-11T22:45:08.861Z,51.62
2023-03-11T22:47:35.367Z,51.34
2023-03-11T22:50:01.805Z,51.21
2023-03-11T22:52:28.298Z,51.23
2023-03-11T22:54:54.846Z,51.55
2023-03-11T22:57:21.408Z,51.29
2023-03-11T22:59:47.864Z,51.51
2023-03-11T23:02:14.434Z,51.87
2023-03-11T23:04:45.470Z,51.20
2023-03-11T23:07:12.531Z,51.86
2023-03-11T23:09:39.157Z,51.65
2023-03-11T23:12:06.911Z,51.71
2023-03-11T23:14:44.669Z,51.98
2023-03-11T23:17:12.371Z,52.02
2023-03-11T23:19:39.032Z,52.27
2023-03-11T23:22:07.007Z,52.43
2023-03-11T23:24:34.054Z,52.12
2023-03-11T23:27:00.635Z,51.90
2023-03-11T23:29:27.192Z,52.22
2023-03-11T23:31:53.771Z,52.37
2023-03-11T23:34:20.239Z,52.31
2023-03-11T23:36:46.819Z,52.55
2023-03-11T23:39:13.329Z,52.22
2023-03-11T23:41:39.756Z,52.33
2023-03-11T23:44:06.330Z,52.12
2023-03-11T23:46:32.983Z,52.12
2023-03-11T23:49:01.233Z,52.20
2023-03-11T23:51:28.063Z,52.31
2023-03-11T23:53:54.632Z,52.27
2023-03-11T23:56:21.156Z,52.13
2023-03-11T23:58:47.729Z,52.08
